createdAt,value
2023-01-19T00:00:10.887Z,99281.13
2023-01-19T00:05:17.981Z,99290.47
2023-01-19T00:08:02.338Z,99301.94
2023-01-19T00:10:36.166Z,99311.59
2023-01-19T00:13:29.583Z,99305.25
2023-01-19T00:16:18.531Z,99318.72
2023-01-19T00:21:42.991Z,99318.41
2023-01-19T00:24:12.491Z,99315.66
2023-01-19T00:26:53.625Z,99313.97
2023-01-19T00:29:35.328Z,99324.72
2023-01-19T00:32:06.254Z,99316.81
2023-01-19T00:34:43.605Z,99319.31
2023-01-19T00:37:17.421Z,99326.56
2023-01-19T00:39:47.410Z,99337.78
2023-01-19T00:42:34.242Z,99335.13
2023-01-19T00:45:19.709Z,99329.53
2023-01-19T00:47:48.402Z,99325.88
2023-01-19T00:50:21.427Z,99310.53
2023-01-19T00:52:52.894Z,99342.31
2023-01-19T00:55:25.919Z,99380.41
2023-01-19T01:00:36.125Z,99391.69
2023-01-19T01:03:10.587Z,99390.88
2023-01-19T01:05:50.370Z,99384.41
2023-01-19T01:08:17.247Z,99392.22
2023-01-19T01:10:46.569Z,99390.28
2023-01-19T01:13:20.460Z,99384.63
2023-01-19T01:15:52.465Z,99385.72
2023-01-19T01:18:19.430Z,99387.75
2023-01-19T01:21:00.588Z,99371.00
2023-01-19T01:23:30.331Z,99370.22
2023-01-19T01:26:00.145Z,99363.91
2023-01-19T01:28:57.550Z,99351.75
2023-01-19T01:31:50.910Z,99354.09
2023-01-19T01:34:23.343Z,99350.66
2023-01-19T01:36:55.070Z,99343.06
2023-01-19T01:39:22.667Z,99350.72
2023-01-19T01:42:15.875Z,99336.06
2023-01-19T01:45:41.869Z,99337.19
2023-01-19T01:48:32.599Z,99334.41
2023-01-19T01:51:15.792Z,99329.84
2023-01-19T01:53:45.490Z,99333.44
2023-01-19T01:56:20.337Z,99330.41
2023-01-19T01:59:04.829Z,99320.84
2023-01-19T02:01:42.856Z,99316.25
2023-01-19T02:04:22.704Z,99310.66
2023-01-19T02:06:49.373Z,99297.94
2023-01-19T02:09:32.827Z,99289.91
2023-01-19T02:12:04.566Z,99289.50
2023-01-19T02:14:31.258Z,99289.69
2023-01-19T02:16:58.064Z,99301.44
2023-01-19T02:19:35.381Z,99316.94
2023-01-19T02:22:19.237Z,99340.22
2023-01-19T02:24:46.253Z,99344.81
2023-01-19T02:27:13.294Z,99342.84
2023-01-19T02:29:49.230Z,99339.44
2023-01-19T02:32:18.752Z,99349.72
2023-01-19T02:34:48.600Z,99355.88
2023-01-19T02:37:18.571Z,99351.94
2023-01-19T02:40:04.628Z,99343.06
2023-01-19T02:43:14.890Z,99339.78
2023-01-19T02:46:09.594Z,99338.94
2023-01-19T02:48:47.709Z,99335.41
2023-01-19T02:51:31.312Z,99328.56
2023-01-19T02:54:23.627Z,99323.31
2023-01-19T02:57:27.430Z,99327.81
2023-01-19T03:00:26.759Z,99344.63
2023-01-19T03:03:15.941Z,99345.81
2023-01-19T03:06:46.817Z,99357.88
2023-01-19T03:09:28.920Z,99352.91
2023-01-19T03:12:23.835Z,99347.91
2023-01-19T03:14:53.887Z,99344.38
2023-01-19T03:17:21.782Z,99358.19
2023-01-19T03:22:42.336Z,99372.22
2023-01-19T03:25:27.782Z,99366.53
2023-01-19T03:27:57.492Z,99360.06
2023-01-19T03:30:35.198Z,99345.81
2023-01-19T03:33:15.653Z,99340.38
2023-01-19T03:35:50.499Z,99339.72
2023-01-19T03:38:21.937Z,99349.19
2023-01-19T03:40:49.544Z,99346.22
2023-01-19T03:43:30.855Z,99334.44
2023-01-19T03:45:57.944Z,99331.56
2023-01-19T03:51:14.166Z,99317.81
2023-01-19T03:53:54.796Z,99313.44
2023-01-19T03:59:27.021Z,99324.13
2023-01-19T04:02:14.310Z,99332.44
2023-01-19T04:04:56.485Z,99329.38
2023-01-19T04:07:33.446Z,99338.75
2023-01-19T04:10:08.333Z,99333.09
2023-01-19T04:12:57.661Z,99339.38
2023-01-19T04:15:31.252Z,99333.84
2023-01-19T04:17:59.201Z,99330.59
2023-01-19T04:20:28.841Z,99320.69
2023-01-19T04:25:44.489Z,99303.81
2023-01-19T04:30:56.226Z,99317.25
2023-01-19T04:33:27.256Z,99317.59
2023-01-19T04:36:02.892Z,99331.94
2023-01-19T04:38:29.749Z,99335.28
2023-01-19T04:41:08.807Z,99342.31
2023-01-19T04:43:49.660Z,99344.16
2023-01-19T04:49:20.270Z,99343.25
2023-01-19T04:52:14.881Z,99360.47
2023-01-19T04:54:44.136Z,99355.56
2023-01-19T04:57:18.522Z,99354.69
2023-01-19T04:59:51.686Z,99353.25
2023-01-19T05:02:18.484Z,99357.75
2023-01-19T05:04:45.064Z,99362.41
2023-01-19T05:07:34.668Z,99366.03
2023-01-19T05:10:07.692Z,99374.47
2023-01-19T05:13:13.339Z,99369.97
2023-01-19T05:15:38.771Z,99348.38
2023-01-19T05:18:05.404Z,99345.53
2023-01-19T05:20:31.971Z,99333.28
2023-01-19T05:22:59.025Z,99313.97
2023-01-19T05:25:25.863Z,99318.97
2023-01-19T05:27:52.399Z,99332.72
2023-01-19T05:30:19.040Z,99355.81
2023-01-19T05:32:48.365Z,99369.44
2023-01-19T05:35:31.306Z,99355.53
2023-01-19T05:38:02.034Z,99359.25
2023-01-19T05:40:38.551Z,99361.53
2023-01-19T05:43:05.516Z,99360.06
2023-01-19T05:45:41.409Z,99370.94
2023-01-19T05:48:11.078Z,99366.44
2023-01-19T05:50:40.347Z,99363.50
2023-01-19T05:53:06.960Z,99363.47
2023-01-19T05:55:36.448Z,99360.09
2023-01-19T05:58:03.966Z,99346.47
2023-01-19T06:00:30.542Z,99338.56
2023-01-19T06:03:03.663Z,99361.50
2023-01-19T06:05:44.961Z,99380.81
2023-01-19T06:08:11.495Z,99380.47
2023-01-19T06:10:38.141Z,99391.88
2023-01-19T06:13:04.752Z,99394.06
2023-01-19T06:15:35.422Z,99390.38
2023-01-19T06:18:02.014Z,99395.50
2023-01-19T06:20:48.088Z,99401.81
2023-01-19T06:23:18.025Z,99417.78
2023-01-19T06:25:46.669Z,99432.34
2023-01-19T06:28:26.403Z,99435.63
2023-01-19T06:31:04.510Z,99450.09
2023-01-19T06:33:36.813Z,99448.47
2023-01-19T06:36:04.053Z,99456.03
2023-01-19T06:38:30.657Z,99460.19
2023-01-19T06:40:58.900Z,99460.66
2023-01-19T06:43:26.908Z,99452.19
2023-01-19T06:46:03.632Z,99459.69
2023-01-19T06:48:37.129Z,99468.78
2023-01-19T06:51:03.696Z,99473.19
2023-01-19T06:53:37.967Z,99472.09
2023-01-19T06:56:04.987Z,99471.94
2023-01-19T07:01:21.032Z,99476.63
2023-01-19T07:03:52.007Z,99481.75
2023-01-19T07:06:20.875Z,99487.78
2023-01-19T07:09:08.602Z,99488.44
2023-01-19T07:11:35.041Z,99492.69
2023-01-19T07:14:02.783Z,99495.78
2023-01-19T07:16:35.051Z,99503.28
2023-01-19T07:19:05.803Z,99506.78
2023-01-19T07:21:38.591Z,99519.19
2023-01-19T07:24:10.043Z,99516.03
2023-01-19T07:27:00.701Z,99519.13
2023-01-19T07:29:50.976Z,99521.72
2023-01-19T07:32:32.931Z,99525.31
2023-01-19T07:34:59.480Z,99528.41
2023-01-19T07:37:34.605Z,99526.88
2023-01-19T07:40:07.688Z,99539.81
2023-01-19T07:42:54.782Z,99546.84
2023-01-19T07:45:23.808Z,99552.19
2023-01-19T07:47:50.425Z,99558.91
2023-01-19T07:50:17.975Z,99555.91
2023-01-19T07:52:44.504Z,99568.13
2023-01-19T07:55:11.099Z,99578.22
2023-01-19T07:57:52.589Z,99578.00
2023-01-19T08:00:20.742Z,99573.97
2023-01-19T08:02:57.199Z,99581.13
2023-01-19T08:05:34.293Z,99586.16
2023-01-19T08:08:02.282Z,99604.09
2023-01-19T08:10:34.871Z,99595.00
2023-01-19T08:13:11.503Z,99606.78
2023-01-19T08:15:58.781Z,99602.94
2023-01-19T08:18:36.458Z,99604.00
2023-01-19T08:21:08.151Z,99611.75
2023-01-19T08:23:34.936Z,99604.38
2023-01-19T08:26:17.853Z,99611.75
2023-01-19T08:28:52.055Z,99601.44
2023-01-19T08:31:28.290Z,99599.50
2023-01-19T08:33:57.814Z,99597.47
2023-01-19T08:36:24.724Z,99593.84
2023-01-19T08:38:59.544Z,99603.16
2023-01-19T08:41:28.492Z,99611.09
2023-01-19T08:43:57.958Z,99612.47
2023-01-19T08:46:24.580Z,99613.44
2023-01-19T08:48:51.290Z,99620.41
2023-01-19T08:51:25.963Z,99623.69
2023-01-19T08:54:01.056Z,99638.13
2023-01-19T08:59:20.975Z,99639.38
2023-01-19T09:02:03.153Z,99636.09
2023-01-19T09:04:30.459Z,99633.38
2023-01-19T09:06:57.277Z,99630.72
2023-01-19T09:09:36.016Z,99636.72
2023-01-19T09:12:02.734Z,99634.09
2023-01-19T09:14:41.500Z,99643.84
2023-01-19T09:17:13.931Z,99643.56
2023-01-19T09:19:41.299Z,99649.78
2023-01-19T09:22:12.906Z,99645.84
2023-01-19T09:24:42.019Z,99651.75
2023-01-19T09:27:11.409Z,99651.75
2023-01-19T09:29:37.980Z,99659.84
2023-01-19T09:32:04.843Z,99660.47
2023-01-19T09:34:32.869Z,99649.88
2023-01-19T09:37:13.554Z,99645.88
2023-01-19T09:39:40.331Z,99651.66
2023-01-19T09:42:42.743Z,99673.00
2023-01-19T09:45:48.805Z,99672.47
2023-01-19T09:48:44.440Z,99667.16
2023-01-19T09:51:26.343Z,99679.88
2023-01-19T09:54:25.670Z,99676.66
2023-01-19T09:57:09.604Z,99676.38
2023-01-19T09:59:39.663Z,99672.22
2023-01-19T10:02:24.700Z,99674.75
2023-01-19T10:05:09.093Z,99677.69
2023-01-19T10:08:27.799Z,99687.16
2023-01-19T10:10:58.430Z,99682.25
2023-01-19T10:14:11.276Z,99683.97
2023-01-19T10:16:51.363Z,99683.41
2023-01-19T10:19:39.219Z,99687.22
2023-01-19T10:22:29.948Z,99678.72
2023-01-19T10:25:01.396Z,99686.84
2023-01-19T10:27:40.205Z,99693.34
2023-01-19T10:30:08.825Z,99698.78
2023-01-19T10:32:41.802Z,99696.00
2023-01-19T10:35:31.755Z,99708.28
2023-01-19T10:38:05.848Z,99704.78
2023-01-19T10:40:39.300Z,99713.34
2023-01-19T10:43:33.797Z,99711.66
2023-01-19T10:46:21.907Z,99700.06
2023-01-19T10:48:53.666Z,99700.69
2023-01-19T10:51:23.176Z,99692.78
2023-01-19T10:54:02.060Z,99699.25
2023-01-19T10:56:39.447Z,99699.44
2023-01-19T10:59:38.709Z,99699.16
2023-01-19T11:02:26.599Z,99693.09
2023-01-19T11:05:05.319Z,99699.31
2023-01-19T11:07:35.171Z,99697.88
2023-01-19T11:10:32.380Z,99689.84
2023-01-19T11:13:10.485Z,99682.09
2023-01-19T11:15:56.385Z,99688.09
2023-01-19T11:18:34.424Z,99675.41
2023-01-19T11:21:08.061Z,99682.03
2023-01-19T11:23:42.153Z,99684.84
2023-01-19T11:26:14.852Z,99685.28
2023-01-19T11:29:06.172Z,99693.56
2023-01-19T11:31:35.612Z,99702.69
2023-01-19T11:34:05.657Z,99707.91
2023-01-19T11:36:38.398Z,99703.78
2023-01-19T11:39:24.651Z,99698.44
2023-01-19T11:42:01.617Z,99700.59
2023-01-19T11:44:35.285Z,99708.75
2023-01-19T11:47:29.902Z,99722.31
2023-01-19T11:50:33.461Z,99730.91
2023-01-19T11:53:34.151Z,99744.19
2023-01-19T11:56:11.093Z,99727.56
2023-01-19T11:58:43.168Z,99728.16
2023-01-19T12:01:26.702Z,99739.13
2023-01-19T12:04:07.436Z,99737.53
2023-01-19T12:06:40.307Z,99748.69
2023-01-19T12:09:09.954Z,99750.88
2023-01-19T12:12:07.715Z,99746.91
2023-01-19T12:18:03.073Z,99764.91
2023-01-19T12:21:03.928Z,99772.56
2023-01-19T12:24:13.655Z,99765.06
2023-01-19T12:27:09.019Z,99760.00
2023-01-19T12:29:36.909Z,99758.94
2023-01-19T12:32:38.095Z,99750.88
2023-01-19T12:35:29.264Z,99755.84
2023-01-19T12:37:59.552Z,99759.56
2023-01-19T12:40:33.119Z,99757.69
2023-01-19T12:43:05.682Z,99752.34
2023-01-19T12:45:40.292Z,99755.75
2023-01-19T12:48:32.336Z,99752.69
2023-01-19T12:50:59.882Z,99748.28
2023-01-19T12:53:33.550Z,99738.78
2023-01-19T12:56:04.843Z,99740.56
2023-01-19T12:58:34.109Z,99742.00
2023-01-19T13:01:18.770Z,99740.91
2023-01-19T13:04:12.904Z,99741.84
2023-01-19T13:06:48.690Z,99745.25
2023-01-19T13:09:45.093Z,99740.72
2023-01-19T13:12:25.825Z,99751.88
2023-01-19T13:15:35.100Z,99748.69
2023-01-19T13:18:02.694Z,99756.13
2023-01-19T13:20:44.214Z,99762.94
2023-01-19T13:23:25.554Z,99770.13
2023-01-19T13:26:04.389Z,99768.44
2023-01-19T13:28:57.473Z,99761.34
2023-01-19T13:31:28.096Z,99753.34
2023-01-19T13:34:01.609Z,99762.59
2023-01-19T13:36:35.578Z,99754.69
2023-01-19T13:39:38.356Z,99763.66
2023-01-19T13:42:13.441Z,99767.88
2023-01-19T13:44:48.168Z,99773.59
2023-01-19T13:47:22.619Z,99778.28
2023-01-19T13:50:08.811Z,99778.38
2023-01-19T13:52:43.656Z,99781.84
2023-01-19T13:55:33.493Z,99789.59
2023-01-19T13:58:00.110Z,99795.75
2023-01-19T14:00:29.527Z,99795.19
2023-01-19T14:03:00.381Z,99798.03
2023-01-19T14:05:31.459Z,99792.50
2023-01-19T14:08:09.888Z,99795.66
2023-01-19T14:11:06.179Z,99791.06
2023-01-19T14:13:46.072Z,99784.41
2023-01-19T14:16:33.986Z,99785.03
2023-01-19T14:19:10.142Z,99782.28
2023-01-19T14:21:38.910Z,99778.19
2023-01-19T14:24:30.429Z,99783.72
2023-01-19T14:27:27.987Z,99785.94
2023-01-19T14:29:54.591Z,99784.25
2023-01-19T14:32:26.177Z,99796.22
2023-01-19T14:35:33.123Z,99802.06
2023-01-19T14:38:02.391Z,99801.75
2023-01-19T14:43:19.326Z,99801.94
2023-01-19T14:46:01.376Z,99798.28
2023-01-19T14:48:28.020Z,99799.69
2023-01-19T14:51:13.271Z,99789.78
2023-01-19T14:53:48.492Z,99795.91
2023-01-19T14:56:28.026Z,99797.72
2023-01-19T14:58:59.495Z,99807.53
2023-01-19T15:01:30.125Z,99799.88
2023-01-19T15:03:57.196Z,99802.78
2023-01-19T15:06:26.469Z,99798.09
2023-01-19T15:09:00.718Z,99798.91
2023-01-19T15:11:32.810Z,99805.38
2023-01-19T15:13:59.775Z,99809.16
2023-01-19T15:16:34.301Z,99820.13
2023-01-19T15:19:17.802Z,99811.19
2023-01-19T15:21:59.844Z,99810.75
2023-01-19T15:24:29.459Z,99815.72
2023-01-19T15:26:58.753Z,99815.91
2023-01-19T15:29:26.260Z,99818.84
2023-01-19T15:32:03.021Z,99809.84
2023-01-19T15:34:49.801Z,99814.16
2023-01-19T15:37:17.572Z,99820.34
2023-01-19T15:39:50.356Z,99826.28
2023-01-19T15:42:19.633Z,99824.66
2023-01-19T15:44:48.744Z,99830.38
2023-01-19T15:47:15.386Z,99828.69
2023-01-19T15:49:41.968Z,99835.88
2023-01-19T15:52:08.587Z,99831.66
2023-01-19T15:54:44.114Z,99832.47
2023-01-19T15:57:17.192Z,99834.06
2023-01-19T15:59:44.579Z,99842.75
2023-01-19T16:02:14.301Z,99843.88
2023-01-19T16:04:48.045Z,99844.66
2023-01-19T16:07:14.795Z,99848.13
2023-01-19T16:09:42.244Z,99856.75
2023-01-19T16:12:08.820Z,99864.66
2023-01-19T16:14:42.808Z,99871.38
2023-01-19T16:17:09.365Z,99871.84
2023-01-19T16:19:35.948Z,99877.13
2023-01-19T16:22:02.571Z,99884.31
2023-01-19T16:24:34.767Z,99895.94
2023-01-19T16:27:01.359Z,99898.50
2023-01-19T16:29:34.292Z,99897.59
2023-01-19T16:32:00.927Z,99895.56
2023-01-19T16:34:30.743Z,99892.00
2023-01-19T16:40:01.255Z,99898.38
2023-01-19T16:42:28.199Z,99907.84
2023-01-19T16:45:15.740Z,99913.69
2023-01-19T16:47:42.310Z,99911.59
2023-01-19T16:50:11.583Z,99912.28
2023-01-19T16:52:41.114Z,99925.97
2023-01-19T16:55:17.921Z,99929.72
2023-01-19T16:57:50.266Z,99937.91
2023-01-19T17:00:19.065Z,99935.66
2023-01-19T17:02:48.935Z,99939.00
2023-01-19T17:05:15.562Z,99939.38
2023-01-19T17:07:42.213Z,99945.47
2023-01-19T17:10:22.083Z,99948.28
2023-01-19T17:12:49.041Z,99946.31
2023-01-19T17:15:36.410Z,99950.06
2023-01-19T17:18:11.046Z,99954.38
2023-01-19T17:20:46.345Z,99953.91
2023-01-19T17:23:20.307Z,99955.88
2023-01-19T17:26:02.230Z,99954.66
2023-01-19T17:28:32.124Z,99962.84
2023-01-19T17:31:07.414Z,99958.78
2023-01-19T17:33:35.092Z,99961.88
2023-01-19T17:36:10.379Z,99962.53
2023-01-19T17:38:42.616Z,99959.19
2023-01-19T17:41:23.514Z,99953.56
2023-01-19T17:44:00.102Z,99951.47
2023-01-19T17:46:28.849Z,99964.00
2023-01-19T17:49:02.903Z,99955.25
2023-01-19T17:51:32.585Z,99955.84
2023-01-19T17:54:04.257Z,99948.78
2023-01-19T17:56:32.851Z,99946.75
2023-01-19T17:59:00.001Z,99957.69
2023-01-19T18:01:31.476Z,99959.13
2023-01-19T18:03:58.745Z,99953.03
2023-01-19T18:06:28.558Z,99954.69
2023-01-19T18:08:58.334Z,99962.09
2023-01-19T18:11:34.647Z,99958.16
2023-01-19T18:14:03.966Z,99960.56
2023-01-19T18:16:53.565Z,99966.31
2023-01-19T18:19:30.379Z,99968.38
2023-01-19T18:22:02.705Z,99962.81
2023-01-19T18:24:29.275Z,99955.78
2023-01-19T18:26:56.029Z,99960.31
2023-01-19T18:29:22.927Z,99969.06
2023-01-19T18:31:49.541Z,99968.53
2023-01-19T18:34:16.101Z,99972.09
2023-01-19T18:36:42.664Z,99969.66
2023-01-19T18:39:09.283Z,99969.13
2023-01-19T18:41:42.093Z,99972.72
2023-01-19T18:44:12.753Z,99972.59
2023-01-19T18:46:42.151Z,99970.16
2023-01-19T18:49:09.039Z,99963.06
2023-01-19T18:51:36.001Z,99966.81
2023-01-19T18:54:02.634Z,99974.34
2023-01-19T18:56:29.759Z,99972.47
2023-01-19T18:58:57.574Z,99966.00
2023-01-19T19:01:36.828Z,99974.19
2023-01-19T19:04:03.556Z,99968.19
2023-01-19T19:06:33.159Z,99964.47
2023-01-19T19:08:59.773Z,99968.94
2023-01-19T19:11:31.502Z,99963.22
2023-01-19T19:14:02.461Z,99964.53
2023-01-19T19:16:39.722Z,99961.28
2023-01-19T19:19:24.228Z,99967.63
2023-01-19T19:21:52.037Z,99952.38
2023-01-19T19:24:20.139Z,99952.78
2023-01-19T19:26:48.524Z,99963.94
2023-01-19T19:29:17.632Z,99960.03
2023-01-19T19:31:44.273Z,99960.81
2023-01-19T19:34:15.125Z,99959.19
2023-01-19T19:36:41.738Z,99958.34
2023-01-19T19:39:14.324Z,99958.44
2023-01-19T19:41:45.054Z,99960.22
2023-01-19T19:44:11.757Z,99960.66
2023-01-19T19:46:44.775Z,99957.56
2023-01-19T19:49:11.441Z,99953.19
2023-01-19T19:51:40.938Z,99966.59
2023-01-19T19:54:07.556Z,99962.34
2023-01-19T19:56:34.308Z,99965.13
2023-01-19T19:59:03.547Z,99967.66
2023-01-19T20:01:34.279Z,99968.97
2023-01-19T20:04:12.238Z,99962.75
2023-01-19T20:06:47.173Z,99968.31
2023-01-19T20:09:15.506Z,99969.56
2023-01-19T20:11:46.110Z,99971.50
2023-01-19T20:14:16.671Z,99965.44
2023-01-19T20:16:46.428Z,99964.00
2023-01-19T20:19:15.498Z,99963.50
2023-01-19T20:21:42.572Z,99957.81
2023-01-19T20:24:16.178Z,99954.88
2023-01-19T20:26:46.177Z,99963.22
2023-01-19T20:29:19.273Z,99967.41
2023-01-19T20:32:04.004Z,99967.03
2023-01-19T20:34:37.237Z,99967.00
2023-01-19T20:37:16.189Z,99975.69
2023-01-19T20:39:52.684Z,99971.06
2023-01-19T20:42:24.325Z,99977.88
2023-01-19T20:44:52.781Z,99984.94
2023-01-19T20:47:19.363Z,99983.53
2023-01-19T20:50:09.640Z,99993.31
2023-01-19T20:52:40.776Z,99996.03
2023-01-19T20:55:18.595Z,99993.84
2023-01-19T20:58:19.031Z,99997.53
2023-01-19T21:00:52.721Z,99996.16
2023-01-19T21:03:21.368Z,99994.63
2023-01-19T21:05:59.526Z,100003.25
2023-01-19T21:08:36.583Z,99999.09
2023-01-19T21:11:03.900Z,99996.31
2023-01-19T21:13:39.672Z,99996.81
2023-01-19T21:16:12.201Z,100007.16
2023-01-19T21:18:41.819Z,99996.72
2023-01-19T21:21:28.402Z,100003.72
2023-01-19T21:24:07.199Z,100000.22
2023-01-19T21:26:45.791Z,100005.59
2023-01-19T21:29:35.480Z,100008.53
2023-01-19T21:32:15.171Z,100020.13
2023-01-19T21:34:49.200Z,100016.09
2023-01-19T21:37:18.489Z,100017.19
2023-01-19T21:39:45.310Z,100017.16
2023-01-19T21:42:15.488Z,100018.41
2023-01-19T21:44:44.382Z,100025.34
2023-01-19T21:47:12.229Z,100020.78
2023-01-19T21:49:41.687Z,100030.44
2023-01-19T21:52:09.696Z,100026.00
2023-01-19T21:54:36.325Z,100035.56
2023-01-19T21:57:02.949Z,100038.50
2023-01-19T21:59:30.266Z,100036.03
2023-01-19T22:02:05.672Z,100034.94
2023-01-19T22:04:44.378Z,100036.91
2023-01-19T22:07:19.916Z,100036.38
2023-01-19T22:09:56.697Z,100042.81
2023-01-19T22:12:32.955Z,100047.25
2023-01-19T22:14:59.558Z,100039.72
2023-01-19T22:17:28.875Z,100044.22
2023-01-19T22:19:55.472Z,100042.00
2023-01-19T22:22:30.797Z,100041.25
2023-01-19T22:24:57.387Z,100039.09
2023-01-19T22:27:32.834Z,100049.25
2023-01-19T22:29:59.867Z,100049.97
2023-01-19T22:32:26.478Z,100059.69
2023-01-19T22:35:02.634Z,100059.47
2023-01-19T22:37:30.687Z,100052.50
2023-01-19T22:39:57.253Z,100055.25
2023-01-19T22:42:34.392Z,100055.41
2023-01-19T22:45:00.942Z,100058.38
2023-01-19T22:47:29.736Z,100063.16
2023-01-19T22:49:56.304Z,100060.25
2023-01-19T22:52:22.927Z,100053.59
2023-01-19T22:54:49.458Z,100055.75
2023-01-19T22:57:15.988Z,100047.81
2023-01-19T22:59:42.559Z,100057.16
2023-01-19T23:02:09.210Z,100058.31
2023-01-19T23:07:16.496Z,100052.84
2023-01-19T23:09:48.273Z,100049.16
2023-01-19T23:12:14.879Z,100061.38
2023-01-19T23:14:50.332Z,100054.41
2023-01-19T23:17:17.232Z,100053.50
2023-01-19T23:19:52.669Z,100049.56
2023-01-19T23:22:19.257Z,100061.16
2023-01-19T23:24:45.792Z,100055.13
2023-01-19T23:27:21.037Z,100053.78
2023-01-19T23:29:50.815Z,100051.00
2023-01-19T23:32:17.420Z,100063.00
2023-01-19T23:34:44.063Z,100054.47
2023-01-19T23:37:16.825Z,100052.94
2023-01-19T23:39:43.386Z,100060.84
2023-01-19T23:42:26.895Z,100058.69
2023-01-19T23:44:58.473Z,100068.38
2023-01-19T23:47:25.078Z,100070.50
2023-01-19T23:49:55.406Z,100065.41
2023-01-19T23:52:22.003Z,100073.34
2023-01-19T23:55:02.013Z,100074.53
2023-01-19T23:57:33.585Z,100076.66
